sensor_id;sensor_type;location;lat;lon;timestamp;temperature;humidity
44513;DHT22;30219;50.588;9.504;2023-04-03T00:02:02;3.80;99.90
44513;DHT22;30219;50.588;9.504;2023-04-03T00:04:28;3.80;99.90
44513;DHT22;30219;50.588;9.504;2023-04-03T00:06:53;3.80;99.90
44513;DHT22;30219;50.588;9.504;2023-04-03T00:09:19;3.70;99.90
44513;DHT22;30219;50.588;9.504;2023-04-03T00:11:45;3.70;99.90
44513;DHT22;30219;50.588;9.504;2023-04-03T00:14:11;3.70;99.90
44513;DHT22;30219;50.588;9.504;2023-04-03T00:16:36;3.80;99.90
44513;DHT22;30219;50.588;9.504;2023-04-03T00:19:01;3.70;99.90
44513;DHT22;30219;50.588;9.504;2023-04-03T00:21:27;3.70;99.90
44513;DHT22;30219;50.588;9.504;2023-04-03T00:23:52;3.70;99.90
44513;DHT22;30219;50.588;9.504;2023-04-03T00:26:18;3.60;99.90
44513;DHT22;30219;50.588;9.504;2023-04-03T00:28:43;3.60;99.90
44513;DHT22;30219;50.588;9.504;2023-04-03T00:31:09;3.60;99.90
44513;DHT22;30219;50.588;9.504;2023-04-03T00:33:35;3.50;99.90
44513;DHT22;30219;50.588;9.504;2023-04-03T00:36:05;3.50;99.90
44513;DHT22;30219;50.588;9.504;2023-04-03T00:38:31;3.40;99.90
44513;DHT22;30219;50.588;9.504;2023-04-03T00:40:56;3.40;99.90
44513;DHT22;30219;50.588;9.504;2023-04-03T00:43:23;3.30;99.90
44513;DHT22;30219;50.588;9.504;2023-04-03T00:45:49;3.30;99.90
44513;DHT22;30219;50.588;9.504;2023-04-03T00:48:17;3.30;99.90
44513;DHT22;30219;50.588;9.504;2023-04-03T00:50:43;3.30;99.90
44513;DHT22;30219;50.588;9.504;2023-04-03T00:53:11;3.20;99.90
44513;DHT22;30219;50.588;9.504;2023-04-03T00:55:37;3.20;99.90
44513;DHT22;30219;50.588;9.504;2023-04-03T00:58:03;3.10;99.90
44513;DHT22;30219;50.588;9.504;2023-04-03T01:00:29;3.10;99.90
44513;DHT22;30219;50.588;9.504;2023-04-03T01:02:55;3.00;99.90
44513;DHT22;30219;50.588;9.504;2023-04-03T01:05:20;2.90;99.90
44513;DHT22;30219;50.588;9.504;2023-04-03T01:07:46;2.80;99.90
44513;DHT22;30219;50.588;9.504;2023-04-03T01:10:13;2.80;99.90
44513;DHT22;30219;50.588;9.504;2023-04-03T01:12:42;2.80;99.90
44513;DHT22;30219;50.588;9.504;2023-04-03T01:15:09;2.60;99.90
44513;DHT22;30219;50.588;9.504;2023-04-03T01:22:43;2.50;99.90
44513;DHT22;30219;50.588;9.504;2023-04-03T01:25:13;2.40;99.90
44513;DHT22;30219;50.588;9.504;2023-04-03T01:27:38;2.20;99.90
44513;DHT22;30219;50.588;9.504;2023-04-03T01:30:04;2.20;99.90
44513;DHT22;30219;50.588;9.504;2023-04-03T01:32:29;2.10;99.90
44513;DHT22;30219;50.588;9.504;2023-04-03T01:34:55;2.00;99.90
44513;DHT22;30219;50.588;9.504;2023-04-03T01:37:20;2.00;99.90
44513;DHT22;30219;50.588;9.504;2023-04-03T01:39:46;2.00;99.90
44513;DHT22;30219;50.588;9.504;2023-04-03T01:42:11;1.90;99.90
44513;DHT22;30219;50.588;9.504;2023-04-03T01:44:37;1.90;99.90
44513;DHT22;30219;50.588;9.504;2023-04-03T01:47:05;1.90;99.90
44513;DHT22;30219;50.588;9.504;2023-04-03T01:49:30;1.90;99.90
44513;DHT22;30219;50.588;9.504;2023-04-03T01:51:56;1.90;99.90
44513;DHT22;30219;50.588;9.504;2023-04-03T01:54:21;1.90;99.90
44513;DHT22;30219;50.588;9.504;2023-04-03T01:56:47;1.80;99.90
44513;DHT22;30219;50.588;9.504;2023-04-03T01:59:12;1.80;99.90
44513;DHT22;30219;50.588;9.504;2023-04-03T02:01:38;1.80;99.90
44513;DHT22;30219;50.588;9.504;2023-04-03T02:04:03;1.80;99.90
44513;DHT22;30219;50.588;9.504;2023-04-03T02:06:28;1.70;99.90
44513;DHT22;30219;50.588;9.504;2023-04-03T02:08:54;1.60;99.90
44513;DHT22;30219;50.588;9.504;2023-04-03T02:11:19;1.60;99.90
44513;DHT22;30219;50.588;9.504;2023-04-03T02:13:45;1.60;99.90
44513;DHT22;30219;50.588;9.504;2023-04-03T02:16:10;1.60;99.90
44513;DHT22;30219;50.588;9.504;2023-04-03T02:18:36;1.50;99.90
44513;DHT22;30219;50.588;9.504;2023-04-03T02:21:02;1.50;99.90
44513;DHT22;30219;50.588;9.504;2023-04-03T02:23:28;1.50;99.90
44513;DHT22;30219;50.588;9.504;2023-04-03T02:26:02;1.40;99.90
44513;DHT22;30219;50.588;9.504;2023-04-03T02:28:27;1.40;99.90
44513;DHT22;30219;50.588;9.504;2023-04-03T02:30:53;1.40;99.90
44513;DHT22;30219;50.588;9.504;2023-04-03T02:33:18;1.30;99.90
44513;DHT22;30219;50.588;9.504;2023-04-03T02:35:43;1.30;99.90
44513;DHT22;30219;50.588;9.504;2023-04-03T02:38:11;1.30;99.90
44513;DHT22;30219;50.588;9.504;2023-04-03T02:40:37;1.20;99.90
44513;DHT22;30219;50.588;9.504;2023-04-03T02:43:02;1.10;99.90
44513;DHT22;30219;50.588;9.504;2023-04-03T02:45:28;1.10;99.90
44513;DHT22;30219;50.588;9.504;2023-04-03T02:47:53;1.00;99.90
44513;DHT22;30219;50.588;9.504;2023-04-03T02:50:19;1.00;99.90
44513;DHT22;30219;50.588;9.504;2023-04-03T02:52:44;1.00;99.90
44513;DHT22;30219;50.588;9.504;2023-04-03T02:55:12;0.90;99.90
44513;DHT22;30219;50.588;9.504;2023-04-03T02:57:38;0.70;99.90
44513;DHT22;30219;50.588;9.504;2023-04-03T03:00:04;0.70;99.90
44513;DHT22;30219;50.588;9.504;2023-04-03T03:02:30;0.60;99.90
44513;DHT22;30219;50.588;9.504;2023-04-03T03:04:55;0.60;99.90
44513;DHT22;30219;50.588;9.504;2023-04-03T03:07:21;0.60;99.90
44513;DHT22;30219;50.588;9.504;2023-04-03T03:09:46;0.60;99.90
44513;DHT22;30219;50.588;9.504;2023-04-03T03:12:12;0.60;99.90
44513;DHT22;30219;50.588;9.504;2023-04-03T03:14:37;0.50;99.90
44513;DHT22;30219;50.588;9.504;2023-04-03T03:17:03;0.50;99.90
44513;DHT22;30219;50.588;9.504;2023-04-03T03:19:28;0.50;99.90
44513;DHT22;30219;50.588;9.504;2023-04-03T03:21:54;0.50;99.90
44513;DHT22;30219;50.588;9.504;2023-04-03T03:24:19;0.60;99.90
44513;DHT22;30219;50.588;9.504;2023-04-03T03:26:45;0.60;99.90
44513;DHT22;30219;50.588;9.504;2023-04-03T03:29:10;0.60;99.90
44513;DHT22;30219;50.588;9.504;2023-04-03T03:31:36;0.60;99.90
44513;DHT22;30219;50.588;9.504;2023-04-03T03:34:01;0.50;99.90
44513;DHT22;30219;50.588;9.504;2023-04-03T03:36:27;0.50;99.90
44513;DHT22;30219;50.588;9.504;2023-04-03T03:38:52;0.40;99.90
44513;DHT22;30219;50.588;9.504;2023-04-03T03:41:18;0.40;99.90
44513;DHT22;30219;50.588;9.504;2023-04-03T03:43:43;0.40;99.90
44513;DHT22;30219;50.588;9.504;2023-04-03T03:46:09;0.30;99.90
44513;DHT22;30219;50.588;9.504;2023-04-03T03:48:34;0.30;99.90
44513;DHT22;30219;50.588;9.504;2023-04-03T03:51:00;0.20;99.90
44513;DHT22;30219;50.588;9.504;2023-04-03T03:53:25;0.30;99.90
44513;DHT22;30219;50.588;9.504;2023-04-03T03:55:51;0.20;99.90
44513;DHT22;30219;50.588;9.504;2023-04-03T03:58:16;0.20;99.90
44513;DHT22;30219;50.588;9.504;2023-04-03T04:00:42;0.10;99.90
44513;DHT22;30219;50.588;9.504;2023-04-03T04:03:07;0.10;99.90
44513;DHT22;30219;50.588;9.504;2023-04-03T04:05:33;0.10;99.90
44513;DHT22;30219;50.588;9.504;2023-04-03T04:07:58;0.10;99.90
44513;DHT22;30219;50.588;9.504;2023-04-03T04:10:24;0.10;99.90
44513;DHT22;30219;50.588;9.504;2023-04-03T04:12:49;0.00;99.90
44513;DHT22;30219;50.588;9.504;2023-04-03T04:15:16;-0.10;99.90
44513;DHT22;30219;50.588;9.504;2023-04-03T04:17:42;-0.10;99.90
44513;DHT22;30219;50.588;9.504;2023-04-03T04:20:07;-0.10;99.90
44513;DHT22;30219;50.588;9.504;2023-04-03T04:22:33;-0.10;99.90
44513;DHT22;30219;50.588;9.504;2023-04-03T04:24:59;-0.20;99.90
44513;DHT22;30219;50.588;9.504;2023-04-03T04:27:24;-0.10;99.90
44513;DHT22;30219;50.588;9.504;2023-04-03T04:29:50;-0.20;99.90
44513;DHT22;30219;50.588;9.504;2023-04-03T04:32:15;-0.10;99.90
44513;DHT22;30219;50.588;9.504;2023-04-03T04:34:41;-0.10;99.90
44513;DHT22;30219;50.588;9.504;2023-04-03T04:37:06;-0.20;99.90
44513;DHT22;30219;50.588;9.504;2023-04-03T04:39:32;-0.20;99.90
44513;DHT22;30219;50.588;9.504;2023-04-03T04:41:57;-0.20;99.90
44513;DHT22;30219;50.588;9.504;2023-04-03T04:44:22;-0.20;99.90
44513;DHT22;30219;50.588;9.504;2023-04-03T04:46:48;-0.20;99.90
44513;DHT22;30219;50.588;9.504;2023-04-03T04:49:13;-0.10;99.90
44513;DHT22;30219;50.588;9.504;2023-04-03T04:51:39;0.00;99.90
44513;DHT22;30219;50.588;9.504;2023-04-03T04:54:04;-0.10;99.90
44513;DHT22;30219;50.588;9.504;2023-04-03T04:56:30;0.00;99.90
44513;DHT22;30219;50.588;9.504;2023-04-03T04:58:55;0.00;99.90
44513;DHT22;30219;50.588;9.504;2023-04-03T05:01:21;0.00;99.90
44513;DHT22;30219;50.588;9.504;2023-04-03T05:03:46;0.10;99.90
44513;DHT22;30219;50.588;9.504;2023-04-03T05:06:13;0.10;99.90
44513;DHT22;30219;50.588;9.504;2023-04-03T05:08:38;0.10;99.90
44513;DHT22;30219;50.588;9.504;2023-04-03T05:11:04;0.10;99.90
44513;DHT22;30219;50.588;9.504;2023-04-03T05:13:29;0.10;99.90
44513;DHT22;30219;50.588;9.504;2023-04-03T05:15:55;0.20;99.90
44513;DHT22;30219;50.588;9.504;2023-04-03T05:18:20;0.20;99.90
44513;DHT22;30219;50.588;9.504;2023-04-03T05:20:47;0.20;99.90
44513;DHT22;30219;50.588;9.504;2023-04-03T05:23:13;0.20;99.90
44513;DHT22;30219;50.588;9.504;2023-04-03T05:25:38;0.20;99.90
44513;DHT22;30219;50.588;9.504;2023-04-03T05:28:04;0.20;99.90
44513;DHT22;30219;50.588;9.504;2023-04-03T05:30:29;0.30;99.90
44513;DHT22;30219;50.588;9.504;2023-04-03T05:32:55;0.30;99.90
44513;DHT22;30219;50.588;9.504;2023-04-03T05:35:20;0.40;99.90
44513;DHT22;30219;50.588;9.504;2023-04-03T05:37:46;0.40;99.90
44513;DHT22;30219;50.588;9.504;2023-04-03T05:40:11;0.40;99.90
44513;DHT22;30219;50.588;9.504;2023-04-03T05:42:37;0.50;99.90
44513;DHT22;30219;50.588;9.504;2023-04-03T05:45:02;0.40;99.90
44513;DHT22;30219;50.588;9.504;2023-04-03T05:47:28;0.40;99.90
44513;DHT22;30219;50.588;9.504;2023-04-03T05:49:54;0.50;99.90
44513;DHT22;30219;50.588;9.504;2023-04-03T05:52:27;0.50;99.90
44513;DHT22;30219;50.588;9.504;2023-04-03T05:54:53;0.40;99.90
44513;DHT22;30219;50.588;9.504;2023-04-03T05:57:19;0.40;99.90
44513;DHT22;30219;50.588;9.504;2023-04-03T05:59:45;0.40;99.90
44513;DHT22;30219;50.588;9.504;2023-04-03T06:02:12;0.40;99.90
44513;DHT22;30219;50.588;9.504;2023-04-03T06:04:38;0.40;99.90
44513;DHT22;30219;50.588;9.504;2023-04-03T06:07:03;0.40;99.90
44513;DHT22;30219;50.588;9.504;2023-04-03T06:09:29;0.40;99.90
44513;DHT22;30219;50.588;9.504;2023-04-03T06:11:55;0.50;99.90
44513;DHT22;30219;50.588;9.504;2023-04-03T06:14:21;0.50;99.90
44513;DHT22;30219;50.588;9.504;2023-04-03T06:16:46;0.40;99.90
44513;DHT22;30219;50.588;9.504;2023-04-03T06:19:12;0.50;99.90
44513;DHT22;30219;50.588;9.504;2023-04-03T06:21:38;0.40;99.90
44513;DHT22;30219;50.588;9.504;2023-04-03T06:24:04;0.40;99.90
44513;DHT22;30219;50.588;9.504;2023-04-03T06:26:29;0.40;99.90
44513;DHT22;30219;50.588;9.504;2023-04-03T06:28:55;0.40;99.90
44513;DHT22;30219;50.588;9.504;2023-04-03T06:31:21;0.40;99.90
44513;DHT22;30219;50.588;9.504;2023-04-03T06:33:46;0.50;99.90
44513;DHT22;30219;50.588;9.504;2023-04-03T06:36:12;0.50;99.90
44513;DHT22;30219;50.588;9.504;2023-04-03T06:38:37;0.50;99.90
44513;DHT22;30219;50.588;9.504;2023-04-03T06:41:03;0.60;99.90
44513;DHT22;30219;50.588;9.504;2023-04-03T06:43:29;0.60;99.90
44513;DHT22;30219;50.588;9.504;2023-04-03T06:45:56;0.70;99.90
44513;DHT22;30219;50.588;9.504;2023-04-03T06:48:22;0.90;99.90
44513;DHT22;30219;50.588;9.504;2023-04-03T06:50:47;0.90;99.90
44513;DHT22;30219;50.588;9.504;2023-04-03T06:53:12;1.00;99.90
44513;DHT22;30219;50.588;9.504;2023-04-03T06:55:38;1.00;99.90
44513;DHT22;30219;50.588;9.504;2023-04-03T06:58:04;1.00;99.90
44513;DHT22;30219;50.588;9.504;2023-04-03T07:00:29;1.00;99.90
44513;DHT22;30219;50.588;9.504;2023-04-03T07:02:55;1.10;99.90
44513;DHT22;30219;50.588;9.504;2023-04-03T07:05:23;1.00;99.90
44513;DHT22;30219;50.588;9.504;2023-04-03T07:07:48;0.90;99.90
44513;DHT22;30219;50.588;9.504;2023-04-03T07:10:15;1.00;99.90
44513;DHT22;30219;50.588;9.504;2023-04-03T07:12:40;1.10;99.90
44513;DHT22;30219;50.588;9.504;2023-04-03T07:15:06;1.30;99.90
44513;DHT22;30219;50.588;9.504;2023-04-03T07:17:32;1.30;99.90
44513;DHT22;30219;50.588;9.504;2023-04-03T07:19:58;1.30;99.90
44513;DHT22;30219;50.588;9.504;2023-04-03T07:22:23;1.30;99.90
44513;DHT22;30219;50.588;9.504;2023-04-03T07:24:49;1.40;99.90
44513;DHT22;30219;50.588;9.504;2023-04-03T07:27:14;1.50;99.90
44513;DHT22;30219;50.588;9.504;2023-04-03T07:29:40;1.40;99.90
44513;DHT22;30219;50.588;9.504;2023-04-03T07:32:05;1.50;99.90
44513;DHT22;30219;50.588;9.504;2023-04-03T07:34:32;1.50;99.90
44513;DHT22;30219;50.588;9.504;2023-04-03T07:36:58;1.60;99.90
44513;DHT22;30219;50.588;9.504;2023-04-03T07:39:23;1.50;99.90
44513;DHT22;30219;50.588;9.504;2023-04-03T07:41:49;1.50;99.90
44513;DHT22;30219;50.588;9.504;2023-04-03T07:44:14;1.60;99.90
44513;DHT22;30219;50.588;9.504;2023-04-03T07:46:40;1.70;99.90
44513;DHT22;30219;50.588;9.504;2023-04-03T07:49:06;1.80;99.90
44513;DHT22;30219;50.588;9.504;2023-04-03T07:51:31;1.80;99.90
44513;DHT22;30219;50.588;9.504;2023-04-03T07:53:57;1.80;99.90
44513;DHT22;30219;50.588;9.504;2023-04-03T07:56:23;1.80;99.90
44513;DHT22;30219;50.588;9.504;2023-04-03T07:58:48;1.80;99.90
44513;DHT22;30219;50.588;9.504;2023-04-03T08:01:14;1.80;99.90
44513;DHT22;30219;50.588;9.504;2023-04-03T08:03:39;2.00;99.90
44513;DHT22;30219;50.588;9.504;2023-04-03T08:06:06;1.90;99.90
44513;DHT22;30219;50.588;9.504;2023-04-03T08:08:32;1.90;99.90
44513;DHT22;30219;50.588;9.504;2023-04-03T08:10:58;1.90;99.90
44513;DHT22;30219;50.588;9.504;2023-04-03T08:13:24;2.00;99.90
44513;DHT22;30219;50.588;9.504;2023-04-03T08:15:49;2.30;99.90
44513;DHT22;30219;50.588;9.504;2023-04-03T08:18:16;2.60;99.90
44513;DHT22;30219;50.588;9.504;2023-04-03T08:20:41;2.60;99.90
44513;DHT22;30219;50.588;9.504;2023-04-03T08:23:07;2.50;99.90
44513;DHT22;30219;50.588;9.504;2023-04-03T08:25:34;2.50;99.90
44513;DHT22;30219;50.588;9.504;2023-04-03T08:27:59;2.50;99.90
44513;DHT22;30219;50.588;9.504;2023-04-03T08:30:25;2.50;99.90
44513;DHT22;30219;50.588;9.504;2023-04-03T08:32:51;2.60;99.90
44513;DHT22;30219;50.588;9.504;2023-04-03T08:35:16;2.70;99.90
44513;DHT22;30219;50.588;9.504;2023-04-03T08:37:42;2.90;99.90
44513;DHT22;30219;50.588;9.504;2023-04-03T08:40:10;3.00;99.90
44513;DHT22;30219;50.588;9.504;2023-04-03T08:42:47;3.10;99.90
44513;DHT22;30219;50.588;9.504;2023-04-03T08:45:17;3.80;99.90
44513;DHT22;30219;50.588;9.504;2023-04-03T08:47:48;4.60;99.90
44513;DHT22;30219;50.588;9.504;2023-04-03T08:50:19;5.40;99.90
44513;DHT22;30219;50.588;9.504;2023-04-03T08:52:50;6.10;99.90
44513;DHT22;30219;50.588;9.504;2023-04-03T08:57:45;7.00;99.90
44513;DHT22;30219;50.588;9.504;2023-04-03T09:00:19;6.70;99.90
44513;DHT22;30219;50.588;9.504;2023-04-03T09:02:46;6.40;99.90
44513;DHT22;30219;50.588;9.504;2023-04-03T09:05:14;5.70;99.80
44513;DHT22;30219;50.588;9.504;2023-04-03T09:07:42;4.90;99.90
44513;DHT22;30219;50.588;9.504;2023-04-03T09:10:10;4.70;99.90
44513;DHT22;30219;50.588;9.504;2023-04-03T09:12:38;4.40;99.90
44513;DHT22;30219;50.588;9.504;2023-04-03T09:15:23;4.20;99.90
44513;DHT22;30219;50.588;9.504;2023-04-03T09:17:56;4.20;99.90
44513;DHT22;30219;50.588;9.504;2023-04-03T09:22:49;4.80;99.90
44513;DHT22;30219;50.588;9.504;2023-04-03T09:27:44;5.10;99.90
44513;DHT22;30219;50.588;9.504;2023-04-03T09:30:17;5.20;99.90
44513;DHT22;30219;50.588;9.504;2023-04-03T09:32:46;5.00;99.90
44513;DHT22;30219;50.588;9.504;2023-04-03T09:40:37;5.70;99.90
44513;DHT22;30219;50.588;9.504;2023-04-03T09:45:48;6.00;98.80
44513;DHT22;30219;50.588;9.504;2023-04-03T09:50:59;5.90;98.70
44513;DHT22;30219;50.588;9.504;2023-04-03T09:56:18;6.90;97.40
44513;DHT22;30219;50.588;9.504;2023-04-03T09:58:51;6.70;97.50
44513;DHT22;30219;50.588;9.504;2023-04-03T10:03:46;5.70;95.50
44513;DHT22;30219;50.588;9.504;2023-04-03T10:06:29;5.40;97.10
44513;DHT22;30219;50.588;9.504;2023-04-03T10:08:59;5.80;96.40
44513;DHT22;30219;50.588;9.504;2023-04-03T10:11:26;5.60;96.40
44513;DHT22;30219;50.588;9.504;2023-04-03T10:13:53;5.90;95.90
44513;DHT22;30219;50.588;9.504;2023-04-03T10:19:09;7.20;96.40
44513;DHT22;30219;50.588;9.504;2023-04-03T10:32:58;5.90;93.70
44513;DHT22;30219;50.588;9.504;2023-04-03T10:40:24;5.70;95.30
44513;DHT22;30219;50.588;9.504;2023-04-03T10:45:30;6.00;94.70
44513;DHT22;30219;50.588;9.504;2023-04-03T10:48:03;6.20;95.70
44513;DHT22;30219;50.588;9.504;2023-04-03T10:53:17;6.90;92.70
44513;DHT22;30219;50.588;9.504;2023-04-03T10:55:51;7.30;93.70
44513;DHT22;30219;50.588;9.504;2023-04-03T10:58:19;7.00;91.60
44513;DHT22;30219;50.588;9.504;2023-04-03T11:00:47;6.60;91.10
44513;DHT22;30219;50.588;9.504;2023-04-03T11:05:47;6.80;92.90
44513;DHT22;30219;50.588;9.504;2023-04-03T11:08:18;7.20;91.60
44513;DHT22;30219;50.588;9.504;2023-04-03T11:10:48;7.50;93.60
44513;DHT22;30219;50.588;9.504;2023-04-03T11:13:16;7.80;92.10
44513;DHT22;30219;50.588;9.504;2023-04-03T11:15:43;7.60;91.60
44513;DHT22;30219;50.588;9.504;2023-04-03T11:18:11;7.40;91.70
44513;DHT22;30219;50.588;9.504;2023-04-03T11:20:38;7.10;91.60
44513;DHT22;30219;50.588;9.504;2023-04-03T11:23:12;7.00;91.60
44513;DHT22;30219;50.588;9.504;2023-04-03T11:25:41;6.90;92.40
44513;DHT22;30219;50.588;9.504;2023-04-03T11:28:12;7.20;92.50
44513;DHT22;30219;50.588;9.504;2023-04-03T11:35:45;7.30;91.00
44513;DHT22;30219;50.588;9.504;2023-04-03T11:38:18;7.10;91.10
44513;DHT22;30219;50.588;9.504;2023-04-03T11:40:45;7.10;92.40
44513;DHT22;30219;50.588;9.504;2023-04-03T11:45:50;6.70;91.40
44513;DHT22;30219;50.588;9.504;2023-04-03T11:50:44;7.00;91.90
44513;DHT22;30219;50.588;9.504;2023-04-03T11:55:43;7.10;90.20
44513;DHT22;30219;50.588;9.504;2023-04-03T11:58:16;6.80;91.90
44513;DHT22;30219;50.588;9.504;2023-04-03T12:05:51;7.00;90.80
44513;DHT22;30219;50.588;9.504;2023-04-03T12:16:05;6.70;90.90
44513;DHT22;30219;50.588;9.504;2023-04-03T12:21:02;6.60;90.80
44513;DHT22;30219;50.588;9.504;2023-04-03T12:23:32;7.20;92.10
44513;DHT22;30219;50.588;9.504;2023-04-03T12:26:08;7.70;91.90
44513;DHT22;30219;50.588;9.504;2023-04-03T12:28:44;7.30;91.10
44513;DHT22;30219;50.588;9.504;2023-04-03T12:31:11;7.60;92.40
44513;DHT22;30219;50.588;9.504;2023-04-03T12:33:41;7.50;92.60
44513;DHT22;30219;50.588;9.504;2023-04-03T12:36:13;7.70;91.90
44513;DHT22;30219;50.588;9.504;2023-04-03T12:41:32;8.00;91.30
44513;DHT22;30219;50.588;9.504;2023-04-03T12:44:20;8.30;91.20
44513;DHT22;30219;50.588;9.504;2023-04-03T12:46:52;8.60;91.80
44513;DHT22;30219;50.588;9.504;2023-04-03T12:49:22;8.50;90.40
44513;DHT22;30219;50.588;9.504;2023-04-03T12:51:51;8.30;89.50
44513;DHT22;30219;50.588;9.504;2023-04-03T12:54:36;7.90;90.10
44513;DHT22;30219;50.588;9.504;2023-04-03T12:57:12;7.60;88.80
44513;DHT22;30219;50.588;9.504;2023-04-03T12:59:38;7.70;90.90
44513;DHT22;30219;50.588;9.504;2023-04-03T13:02:10;7.40;90.60
44513;DHT22;30219;50.588;9.504;2023-04-03T13:04:41;7.30;90.90
44513;DHT22;30219;50.588;9.504;2023-04-03T13:07:17;7.70;91.20
44513;DHT22;30219;50.588;9.504;2023-04-03T13:09:43;7.90;91.00
44513;DHT22;30219;50.588;9.504;2023-04-03T13:12:13;7.70;90.80
44513;DHT22;30219;50.588;9.504;2023-04-03T13:14:39;7.60;90.30
44513;DHT22;30219;50.588;9.504;2023-04-03T13:19:37;7.20;91.00
44513;DHT22;30219;50.588;9.504;2023-04-03T13:22:04;7.20;91.60
44513;DHT22;30219;50.588;9.504;2023-04-03T13:24:31;7.50;90.90
44513;DHT22;30219;50.588;9.504;2023-04-03T13:26:58;7.40;90.40
44513;DHT22;30219;50.588;9.504;2023-04-03T13:29:41;7.50;91.10
44513;DHT22;30219;50.588;9.504;2023-04-03T13:32:07;7.50;90.60
44513;DHT22;30219;50.588;9.504;2023-04-03T13:34:41;7.80;92.40
44513;DHT22;30219;50.588;9.504;2023-04-03T13:37:11;7.80;92.20
44513;DHT22;30219;50.588;9.504;2023-04-03T13:39:44;7.40;91.40
44513;DHT22;30219;50.588;9.504;2023-04-03T13:42:43;7.00;91.80
44513;DHT22;30219;50.588;9.504;2023-04-03T13:47:46;6.80;91.60
44513;DHT22;30219;50.588;9.504;2023-04-03T13:50:14;6.80;91.50
44513;DHT22;30219;50.588;9.504;2023-04-03T13:53:22;6.90;91.40
44513;DHT22;30219;50.588;9.504;2023-04-03T13:55:35;7.00;91.50
44513;DHT22;30219;50.588;9.504;2023-04-03T13:58:16;7.10;92.60
44513;DHT22;30219;50.588;9.504;2023-04-03T14:05:41;7.00;92.00
44513;DHT22;30219;50.588;9.504;2023-04-03T14:08:07;7.00;92.30
44513;DHT22;30219;50.588;9.504;2023-04-03T14:10:32;7.10;92.30
44513;DHT22;30219;50.588;9.504;2023-04-03T14:12:58;6.90;91.90
44513;DHT22;30219;50.588;9.504;2023-04-03T14:15:25;7.10;92.20
44513;DHT22;30219;50.588;9.504;2023-04-03T14:17:51;7.40;92.40
44513;DHT22;30219;50.588;9.504;2023-04-03T14:20:18;7.30;90.70
44513;DHT22;30219;50.588;9.504;2023-04-03T14:22:43;7.10;90.90
44513;DHT22;30219;50.588;9.504;2023-04-03T14:25:09;7.10;91.90
44513;DHT22;30219;50.588;9.504;2023-04-03T14:27:36;7.10;91.90
44513;DHT22;30219;50.588;9.504;2023-04-03T14:30:03;7.10;90.80
44513;DHT22;30219;50.588;9.504;2023-04-03T14:32:29;7.10;92.00
44513;DHT22;30219;50.588;9.504;2023-04-03T14:34:58;7.10;91.40
44513;DHT22;30219;50.588;9.504;2023-04-03T14:37:24;6.90;91.50
44513;DHT22;30219;50.588;9.504;2023-04-03T14:39:52;6.60;90.80
44513;DHT22;30219;50.588;9.504;2023-04-03T14:42:31;6.20;92.00
44513;DHT22;30219;50.588;9.504;2023-04-03T14:44:58;6.20;92.10
44513;DHT22;30219;50.588;9.504;2023-04-03T14:47:24;6.30;90.70
44513;DHT22;30219;50.588;9.504;2023-04-03T14:49:51;6.30;90.30
44513;DHT22;30219;50.588;9.504;2023-04-03T14:52:19;6.20;90.60
44513;DHT22;30219;50.588;9.504;2023-04-03T14:54:45;6.20;89.80
44513;DHT22;30219;50.588;9.504;2023-04-03T14:57:11;6.40;90.50
44513;DHT22;30219;50.588;9.504;2023-04-03T14:59:38;6.80;90.60
44513;DHT22;30219;50.588;9.504;2023-04-03T15:02:25;6.70;87.80
44513;DHT22;30219;50.588;9.504;2023-04-03T15:04:49;6.30;87.10
44513;DHT22;30219;50.588;9.504;2023-04-03T15:07:14;6.10;88.60
44513;DHT22;30219;50.588;9.504;2023-04-03T15:09:40;6.00;89.70
44513;DHT22;30219;50.588;9.504;2023-04-03T15:12:07;6.10;91.40
44513;DHT22;30219;50.588;9.504;2023-04-03T15:14:33;6.10;90.30
44513;DHT22;30219;50.588;9.504;2023-04-03T15:16:58;6.40;91.10
44513;DHT22;30219;50.588;9.504;2023-04-03T15:19:24;6.70;92.50
44513;DHT22;30219;50.588;9.504;2023-04-03T15:21:49;6.90;92.10
44513;DHT22;30219;50.588;9.504;2023-04-03T15:24:15;6.80;92.30
44513;DHT22;30219;50.588;9.504;2023-04-03T15:26:40;6.70;91.50
44513;DHT22;30219;50.588;9.504;2023-04-03T15:29:06;6.20;91.30
44513;DHT22;30219;50.588;9.504;2023-04-03T15:31:32;5.90;92.50
44513;DHT22;30219;50.588;9.504;2023-04-03T15:33:58;5.90;92.60
44513;DHT22;30219;50.588;9.504;2023-04-03T15:36:23;5.90;92.40
44513;DHT22;30219;50.588;9.504;2023-04-03T15:38:49;6.10;92.20
44513;DHT22;30219;50.588;9.504;2023-04-03T15:41:14;6.20;91.20
44513;DHT22;30219;50.588;9.504;2023-04-03T15:43:40;6.20;90.90
44513;DHT22;30219;50.588;9.504;2023-04-03T15:46:05;6.20;90.90
44513;DHT22;30219;50.588;9.504;2023-04-03T15:48:31;6.30;90.60
44513;DHT22;30219;50.588;9.504;2023-04-03T15:50:56;6.40;91.00
44513;DHT22;30219;50.588;9.504;2023-04-03T15:53:22;6.50;90.70
44513;DHT22;30219;50.588;9.504;2023-04-03T15:55:48;6.50;91.00
44513;DHT22;30219;50.588;9.504;2023-04-03T15:58:13;6.60;90.50
44513;DHT22;30219;50.588;9.504;2023-04-03T16:00:38;6.60;90.30
44513;DHT22;30219;50.588;9.504;2023-04-03T16:03:05;6.50;89.20
44513;DHT22;30219;50.588;9.504;2023-04-03T16:05:33;6.60;91.00
44513;DHT22;30219;50.588;9.504;2023-04-03T16:08:00;6.60;90.80
44513;DHT22;30219;50.588;9.504;2023-04-03T16:10:26;6.50;90.30
44513;DHT22;30219;50.588;9.504;2023-04-03T16:12:52;6.30;91.00
44513;DHT22;30219;50.588;9.504;2023-04-03T16:15:17;6.20;91.00
44513;DHT22;30219;50.588;9.504;2023-04-03T16:17:43;6.20;90.30
44513;DHT22;30219;50.588;9.504;2023-04-03T16:20:09;6.00;91.30
44513;DHT22;30219;50.588;9.504;2023-04-03T16:22:35;6.00;91.20
44513;DHT22;30219;50.588;9.504;2023-04-03T16:25:01;5.80;91.20
44513;DHT22;30219;50.588;9.504;2023-04-03T16:27:26;5.50;91.20
44513;DHT22;30219;50.588;9.504;2023-04-03T16:29:56;5.60;91.00
44513;DHT22;30219;50.588;9.504;2023-04-03T16:32:21;5.50;91.10
44513;DHT22;30219;50.588;9.504;2023-04-03T16:34:47;5.60;91.90
44513;DHT22;30219;50.588;9.504;2023-04-03T16:37:13;5.70;91.60
44513;DHT22;30219;50.588;9.504;2023-04-03T16:39:38;5.70;91.80
44513;DHT22;30219;50.588;9.504;2023-04-03T16:42:04;5.70;91.70
44513;DHT22;30219;50.588;9.504;2023-04-03T16:44:31;5.60;91.20
44513;DHT22;30219;50.588;9.504;2023-04-03T16:46:56;5.30;90.70
44513;DHT22;30219;50.588;9.504;2023-04-03T16:49:22;5.20;91.30
44513;DHT22;30219;50.588;9.504;2023-04-03T16:51:48;5.10;92.00
44513;DHT22;30219;50.588;9.504;2023-04-03T16:54:13;5.10;92.40
44513;DHT22;30219;50.588;9.504;2023-04-03T16:56:39;5.20;92.80
44513;DHT22;30219;50.588;9.504;2023-04-03T16:59:04;5.10;92.70
44513;DHT22;30219;50.588;9.504;2023-04-03T17:01:30;5.20;92.80
44513;DHT22;30219;50.588;9.504;2023-04-03T17:03:56;5.20;92.20
44513;DHT22;30219;50.588;9.504;2023-04-03T17:06:21;5.20;92.70
44513;DHT22;30219;50.588;9.504;2023-04-03T17:08:49;5.20;91.70
44513;DHT22;30219;50.588;9.504;2023-04-03T17:11:15;5.00;92.20
44513;DHT22;30219;50.588;9.504;2023-04-03T17:13:41;4.90;92.50
44513;DHT22;30219;50.588;9.504;2023-04-03T17:16:07;4.80;92.90
44513;DHT22;30219;50.588;9.504;2023-04-03T17:18:34;4.80;93.20
44513;DHT22;30219;50.588;9.504;2023-04-03T17:20:59;4.60;92.70